Time;durP1;ratioP1;P1;durP2;ratioP2;P2;SDS_P1;SDS_P2;PMS_P1;PMS_P2;Temp;Humidity;BMP_temperature;BMP_pressure;BME280_temperature;BME280_humidity;BME280_pressure;Samples;Min_cycle;Max_cycle;Signal;HPM_P1;HPM_P2
2022/02/26 00:01:57;;;;;;;;;3.00;3.00;;;;;19.66;32.56;102744.41;5077307;28;45480;-53
2022/02/26 00:04:23;;;;;;;;;2.75;2.25;;;;;19.73;32.35;102755.66;5077521;27;45485;-52
2022/02/26 00:06:48;;;;;;;;;2.00;2.00;;;;;19.75;32.23;102746.81;5077439;27;46118;-50
2022/02/26 00:09:13;;;;;;;;;4.00;3.00;;;;;19.83;32.20;102746.66;5077140;27;45437;-53
2022/02/26 00:11:39;;;;;;;;;5.50;3.25;;;;;19.88;32.45;102750.06;5076027;27;45744;-52
2022/02/26 00:14:04;;;;;;;;;5.00;2.50;;;;;19.92;32.30;102745.59;5077184;27;45346;-51
2022/02/26 00:16:32;;;;;;;;;3.25;3.25;;;;;19.97;32.47;102749.00;5076860;27;46781;-52
2022/02/26 00:18:58;;;;;;;;;3.00;3.00;;;;;20.00;31.90;102754.22;5076844;27;45264;-55
2022/02/26 00:21:23;;;;;;;;;3.75;3.00;;;;;20.02;31.97;102752.38;5077059;27;45608;-54
2022/02/26 00:23:48;;;;;;;;;4.25;4.00;;;;;20.04;31.86;102758.50;5077508;27;45261;-54
2022/02/26 00:26:14;;;;;;;;;4.00;4.00;;;;;20.08;31.93;102762.81;5076757;27;45261;-51
2022/02/26 00:28:39;;;;;;;;;3.75;3.00;;;;;20.08;31.94;102748.75;5076899;27;45314;-54
2022/02/26 00:31:04;;;;;;;;;4.00;4.00;;;;;20.13;31.83;102759.19;5076933;27;45296;-52
2022/02/26 00:33:30;;;;;;;;;6.75;3.75;;;;;20.13;31.96;102756.53;5077103;27;45227;-52
2022/02/26 00:35:58;;;;;;;;;4.25;3.00;;;;;20.15;32.33;102762.66;5076640;28;46223;-53
2022/02/26 00:38:24;;;;;;;;;2.00;2.00;;;;;20.14;32.21;102755.66;5076724;27;45882;-54
2022/02/26 00:40:49;;;;;;;;;5.00;3.00;;;;;20.16;31.69;102759.13;5075842;28;45519;-54
2022/02/26 00:43:15;;;;;;;;;3.25;2.25;;;;;20.17;32.14;102763.47;5075625;28;45405;-49
2022/02/26 00:45:40;;;;;;;;;3.00;3.00;;;;;20.15;31.70;102757.38;5076446;27;45294;-54
2022/02/26 00:48:05;;;;;;;;;3.50;3.25;;;;;20.16;31.73;102753.84;5076520;27;45376;-54
2022/02/26 00:50:31;;;;;;;;;6.00;3.00;;;;;20.17;32.08;102750.31;5076790;27;45222;-53
2022/02/26 00:52:57;;;;;;;;;3.00;3.00;;;;;20.16;31.91;102748.59;5076804;27;45536;-49
2022/02/26 00:55:23;;;;;;;;;3.25;3.25;;;;;20.17;31.82;102761.72;5076319;27;46473;-51
2022/02/26 00:57:49;;;;;;;;;2.50;2.50;;;;;20.17;31.67;102771.38;5076734;27;45280;-52
2022/02/26 01:00:15;;;;;;;;;5.00;2.00;;;;;20.16;32.10;102760.00;5076455;27;45308;-55
2022/02/26 01:02:40;;;;;;;;;5.25;3.00;;;;;20.17;31.69;102760.84;5076574;28;45569;-55
2022/02/26 01:05:06;;;;;;;;;3.50;3.00;;;;;20.15;31.42;102753.00;5076332;27;45264;-55
2022/02/26 01:07:32;;;;;;;;;3.00;3.00;;;;;20.15;31.87;102760.91;5075034;28;45476;-54
2022/02/26 01:09:57;;;;;;;;;5.75;5.00;;;;;20.15;31.76;102766.16;5075040;27;45356;-54
2022/02/26 01:12:23;;;;;;;;;5.50;3.25;;;;;20.14;31.75;102774.06;5076916;27;45411;-54
2022/02/26 01:14:48;;;;;;;;;4.75;4.00;;;;;20.14;31.92;102776.72;5074587;28;46942;-56
2022/02/26 01:17:16;;;;;;;;;3.50;3.00;;;;;20.11;31.65;102766.28;5076325;27;45479;-56
2022/02/26 01:19:42;;;;;;;;;4.75;4.75;;;;;20.11;31.31;102772.38;5076249;28;45394;-56
2022/02/26 01:22:08;;;;;;;;;4.50;2.25;;;;;20.11;31.75;102772.38;5076900;28;45608;-55
2022/02/26 01:24:33;;;;;;;;;3.50;2.50;;;;;20.09;31.62;102774.19;5079606;27;46057;-55
2022/02/26 01:26:59;;;;;;;;;5.25;2.50;;;;;20.07;31.84;102787.38;5079601;27;45322;-56
2022/02/26 01:29:25;;;;;;;;;3.50;3.50;;;;;20.06;31.68;102785.66;5078382;27;45248;-50
2022/02/26 01:31:50;;;;;;;;;3.00;3.00;;;;;20.04;31.76;102781.34;5080241;27;45334;-57
2022/02/26 01:34:16;;;;;;;;;3.25;3.25;;;;;20.02;31.57;102776.09;5079546;27;45472;-56
2022/02/26 01:36:41;;;;;;;;;4.25;4.00;;;;;20.02;31.68;102783.13;5079489;27;45296;-53
2022/02/26 01:39:08;;;;;;;;;5.00;4.00;;;;;20.03;31.59;102790.13;5079443;27;45333;-56
2022/02/26 01:41:34;;;;;;;;;4.25;3.25;;;;;20.02;31.99;102796.28;5079707;27;45528;-57
2022/02/26 01:44:00;;;;;;;;;7.00;2.75;;;;;20.01;31.56;102792.78;5079448;27;46320;-56
2022/02/26 01:46:26;;;;;;;;;5.25;3.00;;;;;19.99;31.84;102783.19;5079305;27;45330;-51
2022/02/26 01:48:52;;;;;;;;;3.50;2.75;;;;;19.99;31.60;102778.81;5079865;27;45359;-54
2022/02/26 01:51:18;;;;;;;;;2.50;2.00;;;;;19.98;31.72;102776.19;5079633;28;45418;-56
2022/02/26 01:53:43;;;;;;;;;4.25;4.00;;;;;19.96;31.63;102780.63;5079169;27;46167;-55
2022/02/26 01:56:09;;;;;;;;;7.50;4.00;;;;;19.92;31.77;102779.81;5079228;27;45374;-55
2022/02/26 01:58:36;;;;;;;;;6.50;4.50;;;;;19.90;31.83;102785.13;5079200;27;45240;-53
2022/02/26 02:01:03;;;;;;;;;5.75;5.00;;;;;19.89;32.12;102777.28;5079261;27;45306;-55
2022/02/26 02:03:28;;;;;;;;;4.75;4.75;;;;;19.88;31.78;102780.81;5077681;27;46120;-55
2022/02/26 02:05:55;;;;;;;;;4.00;4.00;;;;;19.87;32.02;102776.44;5095095;27;45444;-55
2022/02/26 02:08:21;;;;;;;;;7.50;4.75;;;;;19.82;32.01;102773.00;5079209;27;45165;-55
2022/02/26 02:10:50;;;;;;;;;5.50;5.50;;;;;19.83;32.35;102778.25;5077988;28;45586;-57
2022/02/26 02:13:15;;;;;;;;;4.75;4.75;;;;;19.80;31.81;102786.19;5079093;27;45814;-54
2022/02/26 02:15:42;;;;;;;;;6.00;5.75;;;;;19.80;31.74;102786.19;5078633;27;45467;-55
2022/02/26 02:18:09;;;;;;;;;4.75;4.75;;;;;19.78;31.89;102782.72;5078948;27;45321;-55
2022/02/26 02:20:35;;;;;;;;;6.25;5.25;;;;;19.74;31.84;102771.41;5079041;27;45507;-57
2022/02/26 02:23:01;;;;;;;;;6.50;6.50;;;;;19.75;32.06;102770.50;5078620;27;46123;-54
2022/02/26 02:25:29;;;;;;;;;5.25;4.00;;;;;19.73;31.98;102776.72;5079055;27;45369;-56
2022/02/26 02:27:56;;;;;;;;;5.00;5.00;;;;;19.74;31.71;102778.41;5077821;27;45457;-54
2022/02/26 02:30:23;;;;;;;;;4.50;3.75;;;;;19.69;32.00;102770.63;5079166;27;45446;-52
2022/02/26 02:32:48;;;;;;;;;6.75;4.75;;;;;19.68;31.94;102763.63;5078511;27;45511;-53
2022/02/26 02:35:28;;;;;;;;;3.75;3.50;;;;;19.69;31.72;102765.34;5077529;27;45279;-51
2022/02/26 02:37:57;;;;;;;;;4.00;4.00;;;;;19.67;31.93;102761.03;5078973;27;45292;-55
2022/02/26 02:40:24;;;;;;;;;6.25;4.75;;;;;19.65;31.90;102758.44;5078877;27;45425;-55
2022/02/26 02:42:50;;;;;;;;;5.25;4.75;;;;;19.65;31.91;102768.97;5078370;28;46040;-52
2022/02/26 02:45:15;;;;;;;;;3.75;3.25;;;;;19.62;32.12;102766.41;5078523;27;45835;-56
2022/02/26 02:47:41;;;;;;;;;5.00;5.00;;;;;19.63;32.26;102765.50;5078492;27;45168;-53
2022/02/26 02:50:07;;;;;;;;;3.25;3.25;;;;;19.61;32.15;102762.91;5077427;28;45614;-53
2022/02/26 02:52:32;;;;;;;;;5.50;4.00;;;;;19.60;32.22;102758.53;5078471;27;47190;-54
2022/02/26 02:54:58;;;;;;;;;5.75;5.50;;;;;19.61;31.96;102762.03;5078505;27;45323;-52
2022/02/26 02:57:23;;;;;;;;;4.00;4.00;;;;;19.59;32.19;102766.44;5078786;27;45267;-54
2022/02/26 02:59:49;;;;;;;;;5.75;5.00;;;;;19.57;32.02;102762.97;5078416;27;45505;-53
2022/02/26 03:02:14;;;;;;;;;4.50;4.50;;;;;19.56;32.29;102754.25;5078113;27;45382;-53
2022/02/26 03:04:39;;;;;;;;;3.75;3.75;;;;;19.55;31.66;102749.03;5078329;27;45383;-51
2022/02/26 03:07:04;;;;;;;;;7.00;4.00;;;;;19.55;32.33;102751.66;5078384;27;45276;-52
2022/02/26 03:09:30;;;;;;;;;5.50;4.25;;;;;19.54;32.34;102749.91;5078381;27;45222;-52
2022/02/26 03:11:55;;;;;;;;;3.75;3.75;;;;;19.51;32.31;102739.44;5078317;27;45361;-52
2022/02/26 03:14:20;;;;;;;;;6.75;3.75;;;;;19.52;32.17;102743.81;5077796;27;45373;-54
2022/02/26 03:16:46;;;;;;;;;4.25;2.25;;;;;19.50;32.23;102742.97;5078261;27;45492;-54
2022/02/26 03:19:11;;;;;;;;;4.00;4.00;;;;;19.47;31.90;102739.50;5078047;27;45433;-56
2022/02/26 03:21:39;;;;;;;;;4.50;4.00;;;;;19.47;32.69;102750.03;5077768;27;46405;-52
2022/02/26 03:24:05;;;;;;;;;6.00;6.00;;;;;19.46;32.04;102750.06;5077804;27;45380;-53
2022/02/26 03:26:32;;;;;;;;;3.00;3.00;;;;;19.44;32.40;102750.09;5076631;28;45232;-56
2022/02/26 03:28:57;;;;;;;;;5.00;5.00;;;;;19.42;32.11;102746.63;5078400;27;45293;-56
2022/02/26 03:31:23;;;;;;;;;4.75;4.75;;;;;19.41;32.24;102744.91;5076360;28;47358;-56
2022/02/26 03:33:48;;;;;;;;;5.00;4.00;;;;;19.39;32.46;102746.69;5077579;27;45368;-57
2022/02/26 03:36:13;;;;;;;;;8.00;6.25;;;;;19.39;32.48;102746.69;5077948;28;45239;-57
2022/02/26 03:38:42;;;;;;;;;5.50;5.00;;;;;19.38;32.18;102744.94;5077773;27;45371;-55
2022/02/26 03:41:08;;;;;;;;;5.00;5.00;;;;;19.38;32.26;102750.22;5077406;27;46228;-56
2022/02/26 03:43:33;;;;;;;;;3.00;3.00;;;;;19.36;32.33;102746.75;5077432;27;45473;-55
2022/02/26 03:45:59;;;;;;;;;8.50;7.75;;;;;19.34;32.17;102735.41;5077679;27;45303;-53
2022/02/26 03:48:24;;;;;;;;;6.75;5.00;;;;;19.35;32.14;102744.16;5077729;27;45551;-51
2022/02/26 03:50:49;;;;;;;;;5.00;5.00;;;;;19.34;32.13;102738.03;5077278;27;45385;-53
2022/02/26 03:53:15;;;;;;;;;4.50;4.50;;;;;19.33;32.17;102736.31;5077327;27;45449;-55
2022/02/26 03:55:40;;;;;;;;;5.75;5.25;;;;;19.33;32.29;102741.56;5076179;28;45391;-54
2022/02/26 03:58:05;;;;;;;;;8.00;5.00;;;;;19.32;32.31;102747.72;5077554;27;45550;-52
2022/02/26 04:00:31;;;;;;;;;4.50;4.25;;;;;19.31;32.26;102743.34;5077400;27;46115;-51
2022/02/26 04:02:56;;;;;;;;;5.00;5.00;;;;;19.30;32.12;102745.09;5077457;27;45335;-56
2022/02/26 04:05:21;;;;;;;;;5.25;5.00;;;;;19.29;32.19;102746.00;5077380;27;45320;-54
2022/02/26 04:07:47;;;;;;;;;8.00;6.00;;;;;19.29;32.23;102753.03;5077367;27;45406;-50
2022/02/26 04:10:12;;;;;;;;;7.25;5.00;;;;;19.27;32.56;102746.94;5077038;27;46341;-52
2022/02/26 04:12:38;;;;;;;;;7.00;6.00;;;;;19.28;32.24;102751.28;5077126;27;45192;-52
2022/02/26 04:15:04;;;;;;;;;5.50;5.50;;;;;19.26;32.26;102751.34;5077242;27;45243;-53
2022/02/26 04:17:30;;;;;;;;;4.75;4.75;;;;;19.26;32.27;102760.97;5076396;28;45543;-54
2022/02/26 04:19:55;;;;;;;;;6.25;6.00;;;;;19.23;32.22;102755.78;5076888;27;45208;-56
2022/02/26 04:22:20;;;;;;;;;3.50;3.50;;;;;19.25;32.71;102768.00;5076919;27;45363;-56
2022/02/26 04:24:46;;;;;;;;;8.50;6.75;;;;;19.23;32.56;102766.31;5077061;27;45369;-56
2022/02/26 04:27:11;;;;;;;;;4.25;4.25;;;;;19.23;32.46;102771.56;5077123;27;45314;-55
2022/02/26 04:29:36;;;;;;;;;6.75;5.00;;;;;19.23;32.38;102771.56;5076683;27;45423;-55
2022/02/26 04:32:02;;;;;;;;;5.00;5.00;;;;;19.21;32.53;102768.94;5077175;27;45382;-54
2022/02/26 04:34:27;;;;;;;;;4.25;4.25;;;;;19.19;32.41;102768.09;5077224;27;45447;-54
2022/02/26 04:36:53;;;;;;;;;5.50;5.50;;;;;19.19;32.62;102770.72;5077084;27;45374;-57
2022/02/26 04:39:18;;;;;;;;;4.25;4.25;;;;;19.14;32.56;102762.94;5076512;27;45318;-53
2022/02/26 04:41:43;;;;;;;;;7.75;4.50;;;;;19.18;32.50;102765.50;5076770;27;45380;-54
2022/02/26 04:44:09;;;;;;;;;5.00;5.00;;;;;19.17;32.33;102775.19;5076773;27;45417;-55
2022/02/26 04:46:34;;;;;;;;;8.50;4.25;;;;;19.15;32.32;102769.94;5076912;27;45570;-55
2022/02/26 04:49:00;;;;;;;;;6.75;5.00;;;;;19.13;32.33;102766.44;5076831;27;45417;-52
2022/02/26 04:51:25;;;;;;;;;6.50;6.50;;;;;19.15;32.79;102775.19;5076665;27;45232;-53
2022/02/26 04:53:50;;;;;;;;;7.00;4.00;;;;;19.15;32.36;102769.94;5076623;27;45247;-50
2022/02/26 04:56:16;;;;;;;;;4.00;4.00;;;;;19.13;32.67;102766.44;5075501;27;45627;-56
2022/02/26 04:58:41;;;;;;;;;4.00;4.00;;;;;19.13;32.32;102760.34;5077879;27;47444;-54
2022/02/26 05:01:07;;;;;;;;;4.50;3.75;;;;;19.12;32.56;102766.50;5080068;28;45330;-55
2022/02/26 05:03:32;;;;;;;;;4.75;4.75;;;;;19.10;32.36;102761.28;5080409;27;45264;-54
2022/02/26 05:05:58;;;;;;;;;3.00;2.75;;;;;19.10;32.16;102766.53;5080333;27;45275;-53
2022/02/26 05:08:23;;;;;;;;;2.75;2.75;;;;;19.07;32.59;102760.47;5079734;27;45231;-51
2022/02/26 05:10:49;;;;;;;;;5.75;5.75;;;;;19.09;32.72;102758.66;5079952;27;45229;-54
2022/02/26 05:13:14;;;;;;;;;4.25;4.25;;;;;19.09;32.75;102753.41;5080050;27;45282;-52
2022/02/26 05:15:40;;;;;;;;;4.00;4.00;;;;;19.07;32.42;102758.69;5079942;27;45573;-55
2022/02/26 05:18:06;;;;;;;;;9.25;5.00;;;;;19.05;32.50;102763.09;5079665;27;45565;-50
2022/02/26 05:20:32;;;;;;;;;5.75;4.00;;;;;19.07;32.62;102770.97;5080020;28;45861;-54
2022/02/26 05:22:58;;;;;;;;;6.00;5.00;;;;;19.05;32.99;102757.84;5079769;27;45504;-55
2022/02/26 05:25:24;;;;;;;;;5.00;4.00;;;;;19.05;32.47;102762.25;5080008;27;45349;-57
2022/02/26 05:27:49;;;;;;;;;8.00;6.00;;;;;19.04;32.62;102761.38;5079584;27;45425;-56
2022/02/26 05:30:15;;;;;;;;;7.00;6.00;;;;;19.03;32.56;102764.91;5078226;28;46251;-56
2022/02/26 05:32:41;;;;;;;;;5.00;5.00;;;;;19.02;32.62;102757.91;5079711;27;45503;-55
2022/02/26 05:35:07;;;;;;;;;4.00;4.00;;;;;19.01;32.65;102750.94;5079887;27;45389;-55
2022/02/26 05:37:33;;;;;;;;;6.50;4.00;;;;;19.00;32.84;102760.56;5079602;27;45326;-55
2022/02/26 05:39:58;;;;;;;;;4.25;4.25;;;;;19.00;32.57;102770.22;5079381;27;45185;-55
2022/02/26 05:42:24;;;;;;;;;7.25;5.25;;;;;18.99;32.41;102768.50;5079626;27;45352;-54
2022/02/26 05:44:49;;;;;;;;;7.00;5.00;;;;;18.97;32.53;102770.28;5078366;27;45599;-55
2022/02/26 05:47:15;;;;;;;;;6.00;6.00;;;;;18.96;32.39;102769.38;5079260;27;46052;-55
2022/02/26 05:49:40;;;;;;;;;6.50;5.50;;;;;18.96;32.57;102768.53;5079405;27;45354;-56
2022/02/26 05:52:06;;;;;;;;;5.75;5.75;;;;;18.96;32.85;102776.41;5079741;27;45369;-55
2022/02/26 05:54:32;;;;;;;;;5.00;5.00;;;;;18.93;32.80;102766.84;5079961;27;45392;-54
2022/02/26 05:56:57;;;;;;;;;4.75;4.75;;;;;18.96;32.60;102768.53;5079137;28;45421;-57
2022/02/26 05:59:23;;;;;;;;;6.25;5.00;;;;;18.98;32.73;102759.72;5079141;27;45362;-55
2022/02/26 06:01:48;;;;;;;;;5.25;5.25;;;;;19.04;32.39;102752.63;5079261;27;45578;-55
2022/02/26 06:04:13;;;;;;;;;6.00;4.25;;;;;19.09;32.52;102761.28;5079464;27;45531;-56
2022/02/26 06:06:39;;;;;;;;;6.00;5.25;;;;;19.15;32.79;102772.56;5078896;27;45305;-53
2022/02/26 06:09:05;;;;;;;;;7.00;5.75;;;;;19.22;32.71;102770.69;5079251;27;45416;-55
2022/02/26 06:11:30;;;;;;;;;4.00;4.00;;;;;19.29;32.40;102772.28;5079368;27;45402;-54
2022/02/26 06:13:56;;;;;;;;;3.50;3.00;;;;;19.35;32.54;102770.44;5079183;27;45548;-52
2022/02/26 06:16:21;;;;;;;;;4.00;4.00;;;;;19.42;32.33;102772.94;5078757;28;46729;-55
2022/02/26 06:18:46;;;;;;;;;6.25;4.50;;;;;19.50;32.42;102780.69;5078897;27;45312;-56
2022/02/26 06:21:12;;;;;;;;;3.75;3.75;;;;;19.56;32.39;102777.06;5078825;27;45341;-56
2022/02/26 06:23:37;;;;;;;;;5.25;5.00;;;;;19.61;32.29;102780.44;5078121;27;45551;-54
2022/02/26 06:26:03;;;;;;;;;4.00;3.25;;;;;19.69;31.88;102785.56;5078641;27;46128;-55
2022/02/26 06:28:28;;;;;;;;;5.75;4.00;;;;;19.73;31.82;102788.09;5078899;27;45295;-57
2022/02/26 06:30:53;;;;;;;;;6.00;4.00;;;;;19.80;31.82;102787.94;5079069;27;46088;-56
2022/02/26 06:33:19;;;;;;;;;5.25;5.25;;;;;19.83;31.96;102787.88;5078848;27;45598;-54
2022/02/26 06:35:44;;;;;;;;;4.25;4.25;;;;;19.88;31.98;102786.06;5078527;27;46020;-55
2022/02/26 06:38:11;;;;;;;;;5.25;4.50;;;;;19.93;31.63;102792.09;5078550;27;45329;-55
2022/02/26 06:40:37;;;;;;;;;3.50;3.50;;;;;19.97;31.45;102785.88;5078893;27;45485;-53
2022/02/26 06:43:03;;;;;;;;;6.25;5.50;;;;;19.96;31.63;102776.22;5078807;27;45569;-56
2022/02/26 06:45:28;;;;;;;;;6.75;5.00;;;;;20.02;31.35;102791.88;5078426;28;45377;-52
2022/02/26 06:47:54;;;;;;;;;3.25;3.25;;;;;20.04;31.22;102797.97;5078549;27;45362;-54
2022/02/26 06:50:19;;;;;;;;;3.00;3.00;;;;;20.06;31.72;102797.97;5078522;27;45429;-55
2022/02/26 06:52:44;;;;;;;;;5.50;3.50;;;;;20.06;31.01;102796.19;5078595;28;45389;-51
2022/02/26 06:55:10;;;;;;;;;4.50;4.50;;;;;20.07;31.12;102784.75;5078295;27;45442;-50
2022/02/26 06:57:35;;;;;;;;;5.00;4.00;;;;;20.08;31.08;102789.13;5078651;27;45449;-51
2022/02/26 07:00:01;;;;;;;;;3.25;2.00;;;;;20.10;31.67;102786.44;5078388;27;45629;-54
2022/02/26 07:02:27;;;;;;;;;3.00;3.00;;;;;20.10;31.16;102785.59;5078628;27;45407;-52
2022/02/26 07:04:52;;;;;;;;;5.75;3.25;;;;;20.10;31.20;102789.06;5077989;27;46173;-53
2022/02/26 07:07:17;;;;;;;;;6.00;5.00;;;;;20.10;31.54;102791.72;5077865;27;53648;-52
2022/02/26 07:09:43;;;;;;;;;4.25;4.25;;;;;20.10;31.29;102791.72;5078324;27;45343;-54
2022/02/26 07:12:09;;;;;;;;;4.00;3.25;;;;;20.10;31.12;102788.22;5078619;27;45365;-55
2022/02/26 07:14:35;;;;;;;;;3.75;3.50;;;;;20.11;30.92;102792.59;5077882;27;46138;-57
2022/02/26 07:17:00;;;;;;;;;3.25;3.25;;;;;20.11;31.20;102801.34;5076733;28;45845;-56
2022/02/26 07:19:25;;;;;;;;;5.25;3.75;;;;;20.11;31.36;102797.84;5078086;27;45566;-56
2022/02/26 07:21:51;;;;;;;;;4.25;3.50;;;;;20.10;31.04;102796.13;5077912;27;45497;-56
2022/02/26 07:24:17;;;;;;;;;6.25;6.25;;;;;20.09;30.65;102795.25;5077649;27;46124;-55
2022/02/26 07:26:42;;;;;;;;;4.00;4.00;;;;;20.07;31.11;102797.91;5077917;27;45337;-54
2022/02/26 07:29:07;;;;;;;;;4.00;4.00;;;;;20.07;30.92;102800.56;5076956;28;45656;-56
2022/02/26 07:31:33;;;;;;;;;4.00;4.00;;;;;20.07;30.88;102802.31;5078086;27;45349;-57
2022/02/26 07:33:58;;;;;;;;;3.75;3.75;;;;;20.02;30.95;102794.50;5077526;27;46504;-57
2022/02/26 07:36:24;;;;;;;;;3.50;3.50;;;;;20.02;31.75;102799.78;5077515;27;45464;-56
2022/02/26 07:38:49;;;;;;;;;2.50;2.50;;;;;20.02;31.19;102799.78;5093559;27;45440;-56
2022/02/26 07:41:14;;;;;;;;;4.00;4.00;;;;;20.01;31.35;102803.31;5077756;27;45491;-56
2022/02/26 07:43:40;;;;;;;;;5.25;3.75;;;;;20.00;31.30;102800.72;5077792;27;46501;-55
2022/02/26 07:46:06;;;;;;;;;4.25;3.25;;;;;19.98;30.77;102800.75;5076204;28;45362;-55
2022/02/26 07:48:32;;;;;;;;;4.75;4.00;;;;;19.99;31.10;102807.75;5077597;27;45396;-56
2022/02/26 07:50:58;;;;;;;;;4.75;3.75;;;;;19.98;30.98;102797.25;5077748;27;45464;-55
2022/02/26 07:53:23;;;;;;;;;5.00;4.00;;;;;19.95;31.31;102792.91;5093003;27;45432;-54
2022/02/26 07:55:50;;;;;;;;;4.00;4.00;;;;;19.95;31.29;102798.19;5077382;27;45280;-54
2022/02/26 07:58:16;;;;;;;;;5.00;4.00;;;;;19.92;31.20;102799.13;5077409;27;45286;-54
2022/02/26 08:00:42;;;;;;;;;6.25;5.25;;;;;19.92;31.24;102803.50;5077889;27;45370;-56
2022/02/26 08:03:07;;;;;;;;;6.00;4.75;;;;;19.90;31.21;102800.91;5077199;28;45374;-56
2022/02/26 08:05:32;;;;;;;;;6.00;3.50;;;;;19.87;31.23;102805.38;5077200;27;45419;-56
2022/02/26 08:07:59;;;;;;;;;4.75;4.25;;;;;19.86;31.52;102804.50;5077431;27;45415;-53
2022/02/26 08:10:26;;;;;;;;;4.25;3.00;;;;;19.85;31.17;102812.41;5077497;27;45476;-55
2022/02/26 08:12:52;;;;;;;;;5.75;5.00;;;;;19.84;31.64;102808.03;5077136;27;45329;-52
2022/02/26 08:15:19;;;;;;;;;5.00;5.00;;;;;19.82;31.56;102813.34;5075694;28;45386;-56
2022/02/26 08:17:46;;;;;;;;;5.75;5.00;;;;;19.81;31.30;102802.84;5077387;27;45250;-54
2022/02/26 08:20:12;;;;;;;;;5.25;5.00;;;;;19.79;31.15;102808.13;5077639;27;45604;-55
2022/02/26 08:22:37;;;;;;;;;5.00;4.50;;;;;19.76;31.52;102808.19;5076892;27;46550;-53
2022/02/26 08:25:04;;;;;;;;;4.00;4.00;;;;;19.75;31.23;102811.72;5077090;27;45345;-57
2022/02/26 08:27:30;;;;;;;;;4.00;3.25;;;;;19.73;31.29;102808.28;5077016;27;45773;-56
2022/02/26 08:29:55;;;;;;;;;2.75;2.75;;;;;19.74;31.43;102810.88;5077200;28;45552;-55
2022/02/26 08:32:21;;;;;;;;;5.00;4.00;;;;;19.71;31.21;102805.66;5075738;28;45902;-57
2022/02/26 08:34:46;;;;;;;;;5.00;4.25;;;;;19.69;31.01;102804.81;5076713;28;45238;-54
2022/02/26 08:37:11;;;;;;;;;3.75;3.75;;;;;19.67;31.44;102804.00;5077221;27;45288;-55
2022/02/26 08:39:37;;;;;;;;;5.50;5.50;;;;;19.67;31.47;102805.75;5076923;27;45144;-56
2022/02/26 08:42:02;;;;;;;;;5.00;5.00;;;;;19.67;31.31;102809.28;5076580;27;46073;-54
2022/02/26 08:44:28;;;;;;;;;6.00;4.50;;;;;19.66;31.36;102799.66;5075304;27;45258;-55
2022/02/26 08:46:53;;;;;;;;;6.00;5.25;;;;;19.65;31.18;102811.06;5076724;27;45265;-55
2022/02/26 08:49:19;;;;;;;;;6.00;5.00;;;;;19.65;31.12;102813.69;5076824;27;45624;-54
2022/02/26 08:51:44;;;;;;;;;7.00;5.00;;;;;19.64;31.52;102804.06;5076896;27;45588;-55
2022/02/26 08:54:10;;;;;;;;;5.00;3.00;;;;;19.60;31.17;102794.50;5074986;27;45322;-56
2022/02/26 08:56:35;;;;;;;;;2.50;1.50;;;;;19.61;31.57;102798.84;5076724;28;45317;-55
2022/02/26 08:59:01;;;;;;;;;4.50;4.00;;;;;19.61;31.39;102807.63;5076874;27;45506;-55
2022/02/26 09:01:26;;;;;;;;;5.75;5.00;;;;;19.59;31.34;102806.78;5076503;27;46866;-56
2022/02/26 09:03:52;;;;;;;;;5.50;4.25;;;;;19.60;31.38;102799.75;5075027;28;45347;-56
2022/02/26 09:06:17;;;;;;;;;3.75;3.75;;;;;19.59;31.09;102798.91;5076552;27;45299;-52
2022/02/26 09:08:43;;;;;;;;;5.00;3.25;;;;;19.56;31.24;102798.09;5077045;27;45566;-56
2022/02/26 09:11:09;;;;;;;;;4.75;4.75;;;;;19.58;31.28;102804.16;5076245;27;45357;-58
2022/02/26 09:13:39;;;;;;;;;6.25;4.00;;;;;19.57;31.15;102808.56;5074970;27;45303;-56
2022/02/26 09:16:05;;;;;;;;;3.25;3.00;;;;;19.55;31.28;102799.00;5076215;27;45350;-54
2022/02/26 09:18:30;;;;;;;;;4.50;4.00;;;;;19.56;31.00;102806.00;5076552;27;45528;-55
2022/02/26 09:20:56;;;;;;;;;4.00;3.00;;;;;19.56;31.42;102806.00;5076320;27;46294;-56
2022/02/26 09:23:22;;;;;;;;;6.00;4.00;;;;;19.53;31.33;102800.78;5074854;28;45479;-56
2022/02/26 09:25:48;;;;;;;;;7.00;4.00;;;;;19.54;31.45;102802.53;5076457;27;45417;-50
2022/02/26 09:28:14;;;;;;;;;7.25;5.75;;;;;19.53;31.03;102791.13;5076699;27;45414;-56
2022/02/26 09:30:39;;;;;;;;;3.25;3.25;;;;;19.51;31.24;102792.94;5076005;27;46710;-57
2022/02/26 09:33:05;;;;;;;;;4.00;3.00;;;;;19.51;31.30;102792.94;5076030;27;45401;-56
2022/02/26 09:35:30;;;;;;;;;6.00;4.00;;;;;19.50;30.94;102793.81;5076384;27;45326;-56
2022/02/26 09:37:55;;;;;;;;;5.00;2.50;;;;;19.48;30.96;102787.72;5076215;27;45495;-56
2022/02/26 09:40:21;;;;;;;;;3.00;3.00;;;;;19.51;31.40;102789.41;5076023;27;46194;-56
2022/02/26 09:42:47;;;;;;;;;4.00;4.00;;;;;19.50;31.31;102790.31;5076273;28;45326;-54
2022/02/26 09:45:12;;;;;;;;;3.25;3.25;;;;;19.49;31.24;102786.84;5079631;27;45213;-55
2022/02/26 09:47:38;;;;;;;;;4.00;4.00;;;;;19.47;31.07;102778.94;5079744;27;45574;-54
2022/02/26 09:50:05;;;;;;;;;4.25;4.25;;;;;19.47;31.12;102781.56;5079288;27;46186;-56
2022/02/26 09:52:36;;;;;;;;;6.00;3.75;;;;;19.46;31.09;102774.59;5079488;27;45278;-55
2022/02/26 09:55:01;;;;;;;;;3.00;1.00;;;;;19.47;30.72;102778.94;5079524;27;45208;-56
2022/02/26 09:57:26;;;;;;;;;5.00;5.00;;;;;19.47;31.00;102781.56;5079602;27;45519;-54
2022/02/26 09:59:53;;;;;;;;;4.00;3.00;;;;;19.43;31.20;102779.94;5078975;27;46557;-51
2022/02/26 10:02:28;;;;;;;;;3.25;3.00;;;;;19.46;31.23;102776.38;5078363;28;45360;-53
2022/02/26 10:04:55;;;;;;;;;4.00;3.00;;;;;19.46;31.12;102774.59;5079253;27;45249;-55
2022/02/26 10:07:24;;;;;;;;;4.00;4.00;;;;;19.43;30.87;102769.41;5079612;27;45489;-56
2022/02/26 10:09:50;;;;;;;;;3.00;3.00;;;;;19.45;30.99;102772.00;5079081;27;46166;-52
2022/02/26 10:12:23;;;;;;;;;5.75;5.00;;;;;19.45;30.82;102775.50;5079412;28;45385;-56
2022/02/26 10:14:50;;;;;;;;;3.00;3.00;;;;;19.45;31.17;102777.25;5079261;27;45372;-55
2022/02/26 10:17:31;;;;;;;;;2.25;2.25;;;;;19.44;30.98;102765.88;5079642;27;45457;-54
2022/02/26 10:20:22;;;;;;;;;4.00;2.00;;;;;19.44;30.98;102772.88;5078705;27;45721;-54
2022/02/26 10:22:51;;;;;;;;;3.00;3.00;;;;;19.43;31.11;102766.78;5077212;27;45228;-53
2022/02/26 10:25:22;;;;;;;;;3.50;3.50;;;;;19.42;31.14;102767.69;5079345;27;45370;-55
2022/02/26 10:27:53;;;;;;;;;4.25;4.00;;;;;19.40;31.15;102768.59;5079509;27;45227;-55
2022/02/26 10:30:34;;;;;;;;;4.75;2.00;;;;;19.41;30.86;102759.78;5079010;27;46197;-52
2022/02/26 10:33:25;;;;;;;;;4.00;4.00;;;;;19.39;31.07;102754.56;5094480;27;45783;-54
2022/02/26 10:35:59;;;;;;;;;5.50;3.50;;;;;19.37;30.69;102753.75;5079024;27;45466;-56
2022/02/26 10:38:30;;;;;;;;;5.50;4.00;;;;;19.40;30.94;102753.69;5079061;27;45326;-55
2022/02/26 10:41:04;;;;;;;;;2.25;2.00;;;;;19.39;30.93;102762.47;5078415;27;46165;-56
2022/02/26 10:43:51;;;;;;;;;3.75;3.00;;;;;19.39;31.18;102754.56;5078385;27;45292;-55
2022/02/26 10:46:30;;;;;;;;;3.75;3.50;;;;;19.38;30.62;102746.72;5077560;27;45598;-54
2022/02/26 10:49:09;;;;;;;;;2.75;2.75;;;;;19.38;30.80;102744.94;5078707;27;45373;-57
2022/02/26 10:51:38;;;;;;;;;3.00;2.50;;;;;19.38;31.19;102749.38;5078303;27;46406;-55
2022/02/26 10:54:06;;;;;;;;;4.50;3.00;;;;;19.36;30.67;102746.75;5078375;27;45886;-55
2022/02/26 10:56:39;;;;;;;;;3.75;3.00;;;;;19.36;31.00;102744.13;5077490;27;45255;-50
2022/02/26 10:59:07;;;;;;;;;3.00;2.00;;;;;19.37;30.74;102742.38;5078748;27;45399;-52
2022/02/26 11:01:32;;;;;;;;;2.25;2.25;;;;;19.36;31.06;102735.38;5078104;27;46262;-53
2022/02/26 11:03:58;;;;;;;;;2.00;2.00;;;;;19.35;30.67;102731.84;5078271;27;45293;-56
2022/02/26 11:06:25;;;;;;;;;4.00;1.00;;;;;19.33;30.77;102736.31;5078378;27;45244;-52
2022/02/26 11:08:52;;;;;;;;;3.25;2.00;;;;;19.34;30.77;102727.53;5078679;27;45548;-56
2022/02/26 11:11:19;;;;;;;;;1.50;1.00;;;;;19.33;30.91;102730.16;5078139;27;45393;-54
2022/02/26 11:13:48;;;;;;;;;1.25;1.25;;;;;19.32;30.91;102726.69;5078099;27;45837;-55
2022/02/26 11:16:14;;;;;;;;;1.00;1.00;;;;;19.31;30.75;102717.06;5078095;27;45247;-54
2022/02/26 11:18:42;;;;;;;;;2.00;2.00;;;;;19.32;30.73;102721.44;5078396;27;45295;-55
2022/02/26 11:21:12;;;;;;;;;3.50;2.25;;;;;19.30;30.45;102716.19;5077682;27;45445;-55